Klemtu, Canada
Current Conditions -  °F | °C
As of 1:00 PM on Wednesday 17 Dec 2014 (Local Time) from CBBC Reporting Station
Few Clouds Few Clouds  
Wind Chill: 37°   Ceiling: Unl
Heat Index: 41°   Visibility: 9mi
Dew Point: 37°   Wind: 6mph
Humidity: 87%   Direction: 110°ESE
Pressure: 29.87"   Gusts: NA
Location:  52.58°N, 128.53°W
Report Text: CBBC 172100Z AUTO 11005KT 050V140 9SM FEW035 05/03 A2987 RMK SLP117
Loading
Personal Weather Stations






























Interactive Weather Map New forecast layout! Learn more

10-Day Weather Forecast

Advertisements
Track Severe Weather on mobile